Time;durP1;ratioP1;P1;durP2;ratioP2;P2;SDS_P1;SDS_P2;PMS_P1;PMS_P2;Temp;Humidity;BMP_temperature;BMP_pressure;BME280_temperature;BME280_humidity;BME280_pressure;Samples;Min_cycle;Max_cycle;Signal;HPM_P1;HPM_P2
2022/12/20 00:01:29;;;;;;;0.90;0.90;;;;;;;;;;5052340;28;20285;-76
2022/12/20 00:03:56;;;;;;;1.00;1.00;;;;;;;;;;5052228;28;20225;-76
2022/12/20 00:06:22;;;;;;;0.93;0.93;;;;;;;;;;5052424;28;20628;-75
2022/12/20 00:08:52;;;;;;;0.90;0.90;;;;;;;;;;5052626;28;20210;-76
2022/12/20 00:11:19;;;;;;;0.90;0.90;;;;;;;;;;5052787;28;20182;-76
2022/12/20 00:13:45;;;;;;;0.90;0.90;;;;;;;;;;5052688;28;20225;-76
2022/12/20 00:16:11;;;;;;;0.80;0.80;;;;;;;;;;5052643;28;20286;-78
2022/12/20 00:18:38;;;;;;;0.93;0.93;;;;;;;;;;5053129;28;20604;-77
2022/12/20 00:21:05;;;;;;;0.87;0.87;;;;;;;;;;5052754;28;20668;-76
2022/12/20 00:23:31;;;;;;;1.00;1.00;;;;;;;;;;5053520;28;20195;-77
2022/12/20 00:26:04;;;;;;;0.90;0.90;;;;;;;;;;5054207;28;20179;-76
2022/12/20 00:28:31;;;;;;;0.80;0.80;;;;;;;;;;5053696;28;20252;-76
2022/12/20 00:30:57;;;;;;;0.90;0.90;;;;;;;;;;5053879;28;20179;-76
2022/12/20 00:33:23;;;;;;;0.90;0.90;;;;;;;;;;5053414;28;20664;-76
2022/12/20 00:35:49;;;;;;;1.00;1.00;;;;;;;;;;5052978;28;20172;-76
2022/12/20 00:38:15;;;;;;;0.90;0.90;;;;;;;;;;5052606;28;20187;-76
2022/12/20 00:40:41;;;;;;;1.00;1.00;;;;;;;;;;5052188;28;20258;-76
2022/12/20 00:43:07;;;;;;;1.00;1.00;;;;;;;;;;5051391;28;20651;-75
2022/12/20 00:45:33;;;;;;;0.90;0.90;;;;;;;;;;5052082;28;20179;-77
2022/12/20 00:47:59;;;;;;;1.00;1.00;;;;;;;;;;5051845;28;20176;-76
2022/12/20 00:50:25;;;;;;;0.90;0.90;;;;;;;;;;5051770;28;20244;-76
2022/12/20 00:52:51;;;;;;;0.90;0.90;;;;;;;;;;5050471;28;20252;-76
2022/12/20 00:55:17;;;;;;;1.00;1.00;;;;;;;;;;5051675;28;20179;-76
2022/12/20 00:57:43;;;;;;;1.00;1.00;;;;;;;;;;5051529;28;20655;-76
2022/12/20 01:00:10;;;;;;;0.90;0.90;;;;;;;;;;5051755;28;20264;-75
2022/12/20 01:02:36;;;;;;;1.00;1.00;;;;;;;;;;5051052;28;20222;-78
2022/12/20 01:05:02;;;;;;;0.90;0.90;;;;;;;;;;5051709;28;20183;-77
2022/12/20 01:07:28;;;;;;;0.80;0.80;;;;;;;;;;5051508;28;20565;-78
2022/12/20 01:09:54;;;;;;;0.90;0.90;;;;;;;;;;5051415;28;20216;-78
2022/12/20 01:12:20;;;;;;;1.00;1.00;;;;;;;;;;5051263;28;20186;-78
2022/12/20 01:14:46;;;;;;;0.80;0.80;;;;;;;;;;5051448;28;20207;-78
2022/12/20 01:17:12;;;;;;;0.90;0.90;;;;;;;;;;5051598;28;20174;-77
2022/12/20 01:19:38;;;;;;;0.97;0.97;;;;;;;;;;5051590;28;20183;-78
2022/12/20 01:22:04;;;;;;;1.00;1.00;;;;;;;;;;5052069;28;20513;-80
2022/12/20 01:24:30;;;;;;;1.00;1.00;;;;;;;;;;5053287;28;20209;-80
2022/12/20 01:26:56;;;;;;;0.97;0.97;;;;;;;;;;5052818;28;20175;-79
2022/12/20 01:29:22;;;;;;;0.90;0.90;;;;;;;;;;5052463;28;20215;-79
2022/12/20 01:31:48;;;;;;;1.00;1.00;;;;;;;;;;5051798;28;20252;-78
2022/12/20 01:34:14;;;;;;;0.90;0.90;;;;;;;;;;5051398;28;20202;-78
2022/12/20 01:36:41;;;;;;;1.00;1.00;;;;;;;;;;5055350;28;20226;-78
2022/12/20 01:39:14;;;;;;;1.00;1.00;;;;;;;;;;5059640;28;20171;-79
2022/12/20 01:41:42;;;;;;;0.90;0.90;;;;;;;;;;5058308;28;20198;-76
2022/12/20 01:44:34;;;;;;;0.90;0.90;;;;;;;;;;5055838;28;20199;-77
2022/12/20 01:47:00;;;;;;;0.90;0.90;;;;;;;;;;5018267;28;20183;-76
2022/12/20 01:49:34;;;;;;;1.00;1.00;;;;;;;;;;5055320;28;20569;-78
2022/12/20 01:52:15;;;;;;;1.00;1.00;;;;;;;;;;5050633;28;20258;-78
2022/12/20 01:54:44;;;;;;;0.90;0.90;;;;;;;;;;5051284;28;20210;-77
2022/12/20 01:57:14;;;;;;;0.90;0.90;;;;;;;;;;5050900;28;20180;-75
2022/12/20 01:59:41;;;;;;;0.90;0.90;;;;;;;;;;5050917;28;20252;-76
2022/12/20 02:02:09;;;;;;;0.93;0.93;;;;;;;;;;5050151;28;20313;-75
2022/12/20 02:04:35;;;;;;;0.90;0.90;;;;;;;;;;5051961;28;20203;-75
2022/12/20 02:07:02;;;;;;;1.00;1.00;;;;;;;;;;5055084;28;20250;-76
2022/12/20 02:09:28;;;;;;;1.00;1.00;;;;;;;;;;5054952;28;20218;-76
2022/12/20 02:12:13;;;;;;;0.87;0.87;;;;;;;;;;5054741;28;20175;-75
2022/12/20 02:14:58;;;;;;;0.90;0.90;;;;;;;;;;5054903;28;20207;-76
2022/12/20 02:17:42;;;;;;;0.80;0.80;;;;;;;;;;5054818;28;20269;-76
2022/12/20 02:20:14;;;;;;;1.00;1.00;;;;;;;;;;5054716;28;20284;-76
2022/12/20 02:22:59;;;;;;;1.00;1.00;;;;;;;;;;5054037;28;20175;-76
2022/12/20 02:25:35;;;;;;;0.90;0.90;;;;;;;;;;5054409;28;20175;-76
2022/12/20 02:28:09;;;;;;;1.00;1.00;;;;;;;;;;5054476;28;20178;-73
2022/12/20 02:30:37;;;;;;;0.90;0.90;;;;;;;;;;5054870;28;20543;-76
2022/12/20 02:33:04;;;;;;;0.90;0.90;;;;;;;;;;5053813;28;20206;-77
2022/12/20 02:35:31;;;;;;;0.90;0.90;;;;;;;;;;5054346;28;20175;-76
2022/12/20 02:37:59;;;;;;;1.00;1.00;;;;;;;;;;5054176;28;20643;-76
2022/12/20 02:40:45;;;;;;;1.00;1.00;;;;;;;;;;5054660;28;20167;-76
2022/12/20 02:45:14;;;;;;;1.00;1.00;;;;;;;;;;5053345;28;20234;-76
2022/12/20 02:45:58;;;;;;;0.90;0.90;;;;;;;;;;5054030;28;20187;-75
2022/12/20 02:48:26;;;;;;;0.90;0.90;;;;;;;;;;5054468;28;20245;-76
2022/12/20 02:50:53;;;;;;;1.00;1.00;;;;;;;;;;5054567;28;20171;-76
2022/12/20 02:53:19;;;;;;;0.90;0.90;;;;;;;;;;5053655;28;20222;-76
2022/12/20 02:55:48;;;;;;;0.90;0.90;;;;;;;;;;5054150;28;20229;-76
2022/12/20 02:58:28;;;;;;;0.90;0.90;;;;;;;;;;5053947;28;20198;-76
2022/12/20 03:00:56;;;;;;;0.90;0.90;;;;;;;;;;5054384;28;20529;-76
2022/12/20 03:03:22;;;;;;;0.97;0.97;;;;;;;;;;5053610;28;20203;-76
2022/12/20 03:05:49;;;;;;;0.90;0.90;;;;;;;;;;5054114;28;20198;-76
2022/12/20 03:08:16;;;;;;;0.90;0.90;;;;;;;;;;5053841;28;20348;-76
2022/12/20 03:10:42;;;;;;;0.93;0.93;;;;;;;;;;5053747;28;20539;-77
2022/12/20 03:13:08;;;;;;;0.90;0.90;;;;;;;;;;5053015;28;20195;-76
2022/12/20 03:15:35;;;;;;;0.90;0.90;;;;;;;;;;5053688;28;20194;-77
2022/12/20 03:18:01;;;;;;;0.90;0.90;;;;;;;;;;5053259;28;20187;-76
2022/12/20 03:20:27;;;;;;;0.90;0.90;;;;;;;;;;5053735;28;20183;-76
2022/12/20 03:22:53;;;;;;;0.90;0.90;;;;;;;;;;5055530;28;20191;-75
2022/12/20 03:25:19;;;;;;;1.00;1.00;;;;;;;;;;5056238;28;20174;-75
2022/12/20 03:27:45;;;;;;;1.10;1.10;;;;;;;;;;5055633;28;20252;-76
2022/12/20 03:30:11;;;;;;;0.90;0.90;;;;;;;;;;5053629;28;20203;-75
2022/12/20 03:32:37;;;;;;;0.90;0.90;;;;;;;;;;5052994;28;20628;-75
2022/12/20 03:35:04;;;;;;;1.00;1.00;;;;;;;;;;5053599;28;20568;-76
2022/12/20 03:37:30;;;;;;;1.20;1.20;;;;;;;;;;5053923;28;20181;-78
2022/12/20 03:39:56;;;;;;;0.90;0.90;;;;;;;;;;5053584;28;20265;-77
2022/12/20 03:42:22;;;;;;;0.90;0.90;;;;;;;;;;5052912;28;20233;-77
2022/12/20 03:44:48;;;;;;;0.90;0.90;;;;;;;;;;5053090;28;20747;-76
2022/12/20 03:47:14;;;;;;;0.90;0.90;;;;;;;;;;5053187;28;20203;-77
2022/12/20 03:49:40;;;;;;;0.90;0.90;;;;;;;;;;5053190;28;20214;-77
2022/12/20 03:52:06;;;;;;;0.90;0.90;;;;;;;;;;5052731;28;20201;-77
2022/12/20 03:54:32;;;;;;;0.90;0.90;;;;;;;;;;5052747;28;20202;-78
2022/12/20 03:56:58;;;;;;;0.90;0.90;;;;;;;;;;5052995;28;20210;-77
2022/12/20 03:59:24;;;;;;;0.90;0.90;;;;;;;;;;5052974;28;20186;-77
2022/12/20 04:01:50;;;;;;;1.00;1.00;;;;;;;;;;5052948;28;20703;-76
2022/12/20 04:04:16;;;;;;;0.90;0.90;;;;;;;;;;5052208;28;20210;-76
2022/12/20 04:06:42;;;;;;;1.00;1.00;;;;;;;;;;5052860;28;20257;-77
2022/12/20 04:09:07;;;;;;;1.03;1.03;;;;;;;;;;5052487;28;20242;-77
2022/12/20 04:11:33;;;;;;;0.90;0.90;;;;;;;;;;5052828;28;20274;-77
2022/12/20 04:13:59;;;;;;;0.90;0.90;;;;;;;;;;5052156;28;20241;-77
2022/12/20 04:16:27;;;;;;;0.90;0.90;;;;;;;;;;5052300;28;20191;-77
2022/12/20 04:18:53;;;;;;;1.10;1.10;;;;;;;;;;5052548;28;20773;-77
2022/12/20 04:21:23;;;;;;;1.00;1.00;;;;;;;;;;5052415;28;20171;-77
2022/12/20 04:23:49;;;;;;;0.90;0.90;;;;;;;;;;5051671;28;20195;-77
2022/12/20 04:26:16;;;;;;;0.90;0.90;;;;;;;;;;5052444;28;20178;-77
2022/12/20 04:28:42;;;;;;;1.00;1.00;;;;;;;;;;5051239;28;20253;-77
2022/12/20 04:31:09;;;;;;;0.90;0.90;;;;;;;;;;5052315;28;20175;-78
2022/12/20 04:33:35;;;;;;;0.80;0.80;;;;;;;;;;5052069;28;20281;-78
2022/12/20 04:36:01;;;;;;;0.87;0.87;;;;;;;;;;5052671;28;20171;-79
2022/12/20 04:38:27;;;;;;;0.90;0.90;;;;;;;;;;5052199;28;20267;-79
2022/12/20 04:40:54;;;;;;;0.90;0.90;;;;;;;;;;5052465;28;20198;-79
2022/12/20 04:43:20;;;;;;;1.00;1.00;;;;;;;;;;5051945;28;20733;-79
2022/12/20 04:45:49;;;;;;;0.90;0.90;;;;;;;;;;5052404;28;20183;-78
2022/12/20 04:48:15;;;;;;;0.80;0.80;;;;;;;;;;5052093;28;20556;-80
2022/12/20 04:50:42;;;;;;;0.80;0.80;;;;;;;;;;5052121;28;20654;-78
2022/12/20 04:55:53;;;;;;;0.90;0.90;;;;;;;;;;5052601;28;20182;-77
2022/12/20 04:58:19;;;;;;;1.00;1.00;;;;;;;;;;5052030;28;20176;-78
2022/12/20 05:00:45;;;;;;;0.90;0.90;;;;;;;;;;5051756;28;20185;-77
2022/12/20 05:03:11;;;;;;;1.10;1.10;;;;;;;;;;5052197;28;20223;-77
2022/12/20 05:05:37;;;;;;;0.90;0.90;;;;;;;;;;5052867;28;20277;-77
2022/12/20 05:08:03;;;;;;;0.90;0.90;;;;;;;;;;5053167;28;20175;-77
2022/12/20 05:10:29;;;;;;;1.00;1.00;;;;;;;;;;5052910;28;20179;-76
2022/12/20 05:12:55;;;;;;;0.90;0.90;;;;;;;;;;5051616;28;20239;-77
2022/12/20 05:15:21;;;;;;;1.00;1.00;;;;;;;;;;5051527;28;20282;-78
2022/12/20 05:17:47;;;;;;;0.90;0.90;;;;;;;;;;5051662;28;20171;-77
2022/12/20 05:20:13;;;;;;;0.90;0.90;;;;;;;;;;5051636;28;20662;-79
2022/12/20 05:28:08;;;;;;;0.90;0.90;;;;;;;;;;5051820;28;20245;-78
2022/12/20 05:30:35;;;;;;;0.90;0.90;;;;;;;;;;5051288;28;20187;-77
2022/12/20 05:33:01;;;;;;;1.10;1.10;;;;;;;;;;5050805;28;20606;-76
2022/12/20 05:35:27;;;;;;;0.90;0.90;;;;;;;;;;5051465;28;20572;-77
2022/12/20 05:37:53;;;;;;;0.90;0.90;;;;;;;;;;5051594;28;20178;-77
2022/12/20 05:40:19;;;;;;;1.00;1.00;;;;;;;;;;5050798;28;20624;-77
2022/12/20 05:42:45;;;;;;;0.90;0.90;;;;;;;;;;5050454;28;20183;-77
2022/12/20 05:45:11;;;;;;;0.90;0.90;;;;;;;;;;5051196;28;20632;-78
2022/12/20 05:47:37;;;;;;;0.87;0.87;;;;;;;;;;5051234;28;20183;-78
2022/12/20 05:50:05;;;;;;;0.90;0.90;;;;;;;;;;5051224;28;20314;-76
2022/12/20 05:52:31;;;;;;;0.90;0.90;;;;;;;;;;5050375;28;20175;-79
2022/12/20 05:54:57;;;;;;;1.00;1.00;;;;;;;;;;5051172;28;20190;-76
2022/12/20 05:57:23;;;;;;;0.90;0.90;;;;;;;;;;5052168;28;20265;-75
2022/12/20 05:59:48;;;;;;;0.90;0.90;;;;;;;;;;5051732;28;20182;-76
2022/12/20 06:02:14;;;;;;;0.80;0.80;;;;;;;;;;5033310;28;20262;-77
2022/12/20 06:04:40;;;;;;;0.90;0.90;;;;;;;;;;5030966;28;20218;-77
2022/12/20 06:07:06;;;;;;;0.90;0.90;;;;;;;;;;5030911;28;20184;-78
2022/12/20 06:09:32;;;;;;;1.00;1.00;;;;;;;;;;5031039;28;20230;-81
2022/12/20 06:11:58;;;;;;;0.80;0.80;;;;;;;;;;5030699;28;20200;-76
2022/12/20 06:14:25;;;;;;;1.00;1.00;;;;;;;;;;5030946;28;20199;-77
2022/12/20 06:16:51;;;;;;;0.90;0.90;;;;;;;;;;5034405;28;20207;-78
2022/12/20 06:19:18;;;;;;;0.90;0.90;;;;;;;;;;5029083;28;20187;-77
2022/12/20 06:21:43;;;;;;;0.90;0.90;;;;;;;;;;5029123;28;20176;-78
2022/12/20 06:24:10;;;;;;;0.90;0.90;;;;;;;;;;5047261;28;20202;-78
2022/12/20 06:26:36;;;;;;;0.90;0.90;;;;;;;;;;5050694;28;20171;-78
2022/12/20 06:29:02;;;;;;;0.90;0.90;;;;;;;;;;5048067;28;20695;-77
2022/12/20 06:31:28;;;;;;;1.00;1.00;;;;;;;;;;5040734;28;20183;-77
2022/12/20 06:33:54;;;;;;;1.00;1.00;;;;;;;;;;5041215;28;20722;-76
2022/12/20 06:36:20;;;;;;;0.90;0.90;;;;;;;;;;5038335;28;20184;-78
2022/12/20 06:38:46;;;;;;;0.80;0.80;;;;;;;;;;5038142;28;20282;-79
2022/12/20 06:41:12;;;;;;;0.90;0.90;;;;;;;;;;5041236;28;20852;-78
2022/12/20 06:43:39;;;;;;;0.80;0.80;;;;;;;;;;5030383;28;20538;-77
2022/12/20 06:46:05;;;;;;;0.90;0.90;;;;;;;;;;5035865;28;20176;-79
2022/12/20 06:48:31;;;;;;;0.90;0.90;;;;;;;;;;5047085;28;20261;-77
2022/12/20 06:50:57;;;;;;;0.97;0.97;;;;;;;;;;5036687;28;20307;-78
2022/12/20 06:53:23;;;;;;;0.83;0.83;;;;;;;;;;5041123;28;20199;-78
2022/12/20 06:55:49;;;;;;;0.80;0.80;;;;;;;;;;5033989;28;20704;-78
2022/12/20 06:58:16;;;;;;;0.93;0.93;;;;;;;;;;5034021;28;20207;-78
2022/12/20 07:00:42;;;;;;;0.90;0.90;;;;;;;;;;5034416;28;20230;-78
2022/12/20 07:03:08;;;;;;;1.00;1.00;;;;;;;;;;5033439;28;20199;-78
2022/12/20 07:05:34;;;;;;;0.80;0.80;;;;;;;;;;5034113;28;20202;-79
2022/12/20 07:08:01;;;;;;;0.60;0.60;;;;;;;;;;5030763;28;20809;-77
2022/12/20 07:10:27;;;;;;;0.70;0.70;;;;;;;;;;5033508;28;20180;-78
2022/12/20 07:12:53;;;;;;;0.80;0.80;;;;;;;;;;5033048;28;20194;-77
2022/12/20 07:15:21;;;;;;;0.83;0.83;;;;;;;;;;5033410;28;20893;-78
2022/12/20 07:17:46;;;;;;;0.70;0.70;;;;;;;;;;5044135;28;20225;-78
2022/12/20 07:20:13;;;;;;;0.70;0.70;;;;;;;;;;5053222;28;20198;-77
2022/12/20 07:22:39;;;;;;;0.70;0.70;;;;;;;;;;5036732;28;20214;-77
2022/12/20 07:25:05;;;;;;;0.90;0.90;;;;;;;;;;5033046;28;20180;-77
2022/12/20 07:27:31;;;;;;;0.80;0.80;;;;;;;;;;5033082;28;20190;-77
2022/12/20 07:29:57;;;;;;;0.90;0.90;;;;;;;;;;5033011;28;20262;-78
2022/12/20 07:32:23;;;;;;;0.83;0.83;;;;;;;;;;5032648;28;20266;-77
2022/12/20 07:34:49;;;;;;;0.90;0.90;;;;;;;;;;5032866;28;20287;-77
2022/12/20 07:37:15;;;;;;;0.80;0.80;;;;;;;;;;5015097;28;20176;-77
2022/12/20 07:39:41;;;;;;;0.90;0.90;;;;;;;;;;5032989;28;20752;-77
2022/12/20 07:42:08;;;;;;;0.80;0.80;;;;;;;;;;5032435;28;20540;-77
2022/12/20 07:44:34;;;;;;;1.00;1.00;;;;;;;;;;5033091;28;20215;-79
2022/12/20 07:47:00;;;;;;;0.90;0.90;;;;;;;;;;5032875;28;20171;-78
2022/12/20 07:49:26;;;;;;;0.90;0.90;;;;;;;;;;5032703;28;20629;-78
2022/12/20 07:51:55;;;;;;;0.93;0.93;;;;;;;;;;5032918;28;20222;-77
2022/12/20 07:54:28;;;;;;;0.90;0.90;;;;;;;;;;5032541;28;20207;-78
2022/12/20 07:56:56;;;;;;;0.90;0.90;;;;;;;;;;5037069;28;20179;-78
2022/12/20 07:59:26;;;;;;;1.00;1.00;;;;;;;;;;5033117;28;20187;-78
2022/12/20 08:01:52;;;;;;;0.80;0.80;;;;;;;;;;5042071;28;20444;-77
2022/12/20 08:04:19;;;;;;;0.90;0.90;;;;;;;;;;5046612;28;20199;-78
2022/12/20 08:06:46;;;;;;;0.90;0.90;;;;;;;;;;5063307;28;20252;-79
2022/12/20 08:09:12;;;;;;;0.80;0.80;;;;;;;;;;5053208;28;20322;-78
2022/12/20 08:11:39;;;;;;;0.80;0.80;;;;;;;;;;5053035;28;20212;-78
2022/12/20 08:14:07;;;;;;;0.80;0.80;;;;;;;;;;5052431;28;20227;-77
2022/12/20 08:16:33;;;;;;;0.90;0.90;;;;;;;;;;5053215;28;20659;-79
2022/12/20 08:18:59;;;;;;;0.80;0.80;;;;;;;;;;5053106;28;20179;-80
2022/12/20 08:21:24;;;;;;;0.73;0.73;;;;;;;;;;5054159;28;20175;-79
2022/12/20 08:23:50;;;;;;;0.77;0.77;;;;;;;;;;5052566;28;20218;-79
2022/12/20 08:26:17;;;;;;;0.90;0.90;;;;;;;;;;5049155;28;20838;-79
2022/12/20 08:28:43;;;;;;;0.80;0.80;;;;;;;;;;5033809;28;20203;-80
2022/12/20 08:31:09;;;;;;;0.90;0.90;;;;;;;;;;5044612;28;20175;-80
2022/12/20 08:33:36;;;;;;;0.87;0.87;;;;;;;;;;5035089;28;20202;-79
2022/12/20 08:36:04;;;;;;;0.70;0.70;;;;;;;;;;5034048;28;20198;-78
2022/12/20 08:38:30;;;;;;;0.80;0.80;;;;;;;;;;5034948;28;20277;-79
2022/12/20 08:41:01;;;;;;;1.00;1.00;;;;;;;;;;5034674;28;20187;-80
2022/12/20 08:43:27;;;;;;;0.90;0.90;;;;;;;;;;5033798;28;20238;-79
2022/12/20 08:45:53;;;;;;;0.80;0.80;;;;;;;;;;5033130;28;20176;-80
2022/12/20 08:48:19;;;;;;;0.90;0.90;;;;;;;;;;5032467;28;20191;-78
2022/12/20 08:50:45;;;;;;;0.80;0.80;;;;;;;;;;5031730;28;20191;-79
2022/12/20 08:53:11;;;;;;;0.90;0.90;;;;;;;;;;5037117;28;20187;-79
2022/12/20 08:55:37;;;;;;;0.90;0.90;;;;;;;;;;5032136;28;20175;-79
2022/12/20 08:58:03;;;;;;;0.90;0.90;;;;;;;;;;5031895;28;20172;-78
2022/12/20 09:00:29;;;;;;;0.90;0.90;;;;;;;;;;5031498;28;20184;-77
2022/12/20 09:02:55;;;;;;;0.80;0.80;;;;;;;;;;5030984;28;20207;-78
2022/12/20 09:05:21;;;;;;;0.77;0.77;;;;;;;;;;5033097;28;20188;-80
2022/12/20 09:07:47;;;;;;;0.90;0.90;;;;;;;;;;5033156;28;20671;-78
2022/12/20 09:10:13;;;;;;;0.77;0.77;;;;;;;;;;5033128;28;20238;-78
2022/12/20 09:12:39;;;;;;;0.80;0.80;;;;;;;;;;5033004;28;20180;-80
2022/12/20 09:15:05;;;;;;;0.90;0.90;;;;;;;;;;5032443;28;20198;-80
2022/12/20 09:17:31;;;;;;;0.80;0.80;;;;;;;;;;5032834;28;20187;-80
2022/12/20 09:19:57;;;;;;;0.80;0.80;;;;;;;;;;5033439;28;20184;-79
2022/12/20 09:22:23;;;;;;;0.80;0.80;;;;;;;;;;5033529;28;20275;-79
2022/12/20 09:24:49;;;;;;;0.80;0.80;;;;;;;;;;5032819;28;20216;-78
2022/12/20 09:27:15;;;;;;;0.80;0.80;;;;;;;;;;5032465;28;20592;-78
2022/12/20 09:29:41;;;;;;;0.80;0.80;;;;;;;;;;5032102;28;20325;-78
2022/12/20 09:32:07;;;;;;;0.80;0.80;;;;;;;;;;5031138;28;20629;-78
2022/12/20 09:34:33;;;;;;;0.80;0.80;;;;;;;;;;5031906;28;20249;-80
2022/12/20 09:36:59;;;;;;;0.80;0.80;;;;;;;;;;5031600;28;20203;-79
2022/12/20 09:39:25;;;;;;;0.80;0.80;;;;;;;;;;5031928;28;20263;-80
2022/12/20 09:41:51;;;;;;;0.80;0.80;;;;;;;;;;5031739;28;20179;-79
2022/12/20 09:44:35;;;;;;;0.80;0.80;;;;;;;;;;5031267;28;20282;-79
2022/12/20 09:47:03;;;;;;;0.77;0.77;;;;;;;;;;5032076;28;20180;-78
2022/12/20 09:49:31;;;;;;;0.70;0.70;;;;;;;;;;5032543;28;20216;-78
2022/12/20 09:52:12;;;;;;;0.80;0.80;;;;;;;;;;5033424;28;20196;-80
2022/12/20 09:55:01;;;;;;;0.80;0.80;;;;;;;;;;5033265;28;20261;-81
2022/12/20 09:57:27;;;;;;;0.73;0.73;;;;;;;;;;5014294;28;20207;-79
2022/12/20 09:59:55;;;;;;;0.73;0.73;;;;;;;;;;5031916;28;20517;-80
2022/12/20 10:02:22;;;;;;;0.90;0.90;;;;;;;;;;5032488;28;20206;-78
2022/12/20 10:04:48;;;;;;;0.73;0.73;;;;;;;;;;5032490;28;20196;-80
2022/12/20 10:07:17;;;;;;;0.87;0.87;;;;;;;;;;5031707;28;20203;-77
2022/12/20 10:10:07;;;;;;;0.70;0.70;;;;;;;;;;5031591;28;20218;-77
2022/12/20 10:12:42;;;;;;;0.70;0.70;;;;;;;;;;5031557;28;20267;-80
2022/12/20 10:15:18;;;;;;;0.70;0.70;;;;;;;;;;5032069;28;20187;-79
2022/12/20 10:17:58;;;;;;;0.70;0.70;;;;;;;;;;5034733;28;20182;-79
2022/12/20 10:20:27;;;;;;;0.70;0.70;;;;;;;;;;5034341;28;20202;-80
2022/12/20 10:22:56;;;;;;;0.63;0.63;;;;;;;;;;5032380;28;20223;-80
2022/12/20 10:25:23;;;;;;;0.73;0.73;;;;;;;;;;5034630;28;20226;-78
2022/12/20 10:27:50;;;;;;;0.70;0.70;;;;;;;;;;5037332;28;20211;-80
2022/12/20 10:30:21;;;;;;;0.70;0.70;;;;;;;;;;5055802;28;20591;-77
2022/12/20 10:32:49;;;;;;;0.80;0.80;;;;;;;;;;5055455;28;20543;-78
2022/12/20 10:35:15;;;;;;;0.80;0.80;;;;;;;;;;5056044;28;20178;-78
2022/12/20 10:38:00;;;;;;;0.70;0.70;;;;;;;;;;5055703;28;20250;-78
2022/12/20 10:40:30;;;;;;;0.77;0.77;;;;;;;;;;5055984;28;20183;-78
2022/12/20 10:42:56;;;;;;;0.70;0.70;;;;;;;;;;5054486;28;20206;-79
2022/12/20 10:45:22;;;;;;;0.70;0.70;;;;;;;;;;5055142;28;20167;-77
2022/12/20 10:47:50;;;;;;;0.80;0.80;;;6.40;1.00;;;;;;5054790;28;20178;-77
2022/12/20 10:50:20;;;;;;;0.70;0.70;;;5.50;99.90;;;;;;5054429;28;20211;-77
2022/12/20 10:53:21;;;;;;;0.70;0.70;;;5.50;1.00;;;;;;5054224;28;20175;-78
2022/12/20 10:55:47;;;;;;;0.60;0.60;;;5.50;1.00;;;;;;5012812;28;20429;-78
2022/12/20 10:58:16;;;;;;;0.70;0.70;;;5.40;1.00;;;;;;5015053;28;20259;-77
2022/12/20 11:00:43;;;;;;;0.80;0.80;;;5.40;1.00;;;;;;5015292;28;20300;-78
2022/12/20 11:03:11;;;;;;;0.80;0.80;;;;;;;;;;5014608;28;20204;-77
2022/12/20 11:05:37;;;;;;;0.80;0.80;;;;;;;;;;5014578;28;20185;-79
2022/12/20 11:08:14;;;;;;;0.73;0.73;;;;;;;;;;5014504;28;20617;-77
2022/12/20 11:10:40;;;;;;;0.73;0.73;;;;;;;;;;5015124;28;20219;-80
2022/12/20 11:13:06;;;;;;;0.80;0.80;;;;;;;;;;5021964;28;20895;-76
2022/12/20 11:15:34;;;;;;;0.80;0.80;;;;;;;;;;5034540;28;20216;-78
2022/12/20 11:18:08;;;;;;;0.80;0.80;;;;;;;;;;5034460;28;20200;-78
2022/12/20 11:20:37;;;;;;;0.80;0.80;;;;;;;;;;5037190;28;20262;-78
2022/12/20 11:23:18;;;;;;;0.80;0.80;;;;;;;;;;5037126;28;20196;-78
2022/12/20 11:26:02;;;;;;;0.70;0.70;;;;;;;;;;5037647;28;20186;-77
2022/12/20 11:28:45;;;;;;;0.80;0.80;;;;;;;;;;5049980;28;20643;-78
2022/12/20 11:31:20;;;;;;;0.80;0.80;;;;;;;;;;5036875;28;20262;-77
2022/12/20 11:33:57;;;;;;;0.70;0.70;;;;;;;;;;5041739;28;20227;-76
2022/12/20 11:36:26;;;;;;;0.90;0.90;;;;;;;;;;5047020;28;20654;-78
2022/12/20 11:39:02;;;;;;;0.70;0.70;;;;;;;;;;5053410;28;20724;-76
2022/12/20 11:41:31;;;;;;;0.80;0.80;;;;;;;;;;5053265;28;20171;-77
2022/12/20 11:44:16;;;;;;;0.70;0.70;;;;;;;;;;5053054;28;20649;-77
2022/12/20 11:47:06;;;;;;;0.70;0.70;;;;;;;;;;5053224;28;20256;-77
2022/12/20 11:49:50;;;;;;;0.80;0.80;;;;;;;;;;5053080;28;20245;-79
2022/12/20 11:52:28;;;;;;;0.73;0.73;;;;;;;;;;5052571;28;20279;-77
2022/12/20 11:55:07;;;;;;;0.73;0.73;;;;;;;;;;5052914;28;20182;-78
2022/12/20 11:57:42;;;;;;;0.70;0.70;;;;;;;;;;5039280;28;20179;-77
2022/12/20 12:00:12;;;;;;;0.90;0.90;;;;;;;;;;5033974;28;20656;-76
2022/12/20 12:02:53;;;;;;;0.70;0.70;;;;;;;;;;5034219;28;20214;-77
2022/12/20 12:05:23;;;;;;;0.80;0.80;;;;;;;;;;5034925;28;20262;-76
2022/12/20 12:07:53;;;;;;;0.70;0.70;;;;;;;;;;5035514;28;20491;-79
2022/12/20 12:10:22;;;;;;;0.70;0.70;;;;;;;;;;5032663;28;20230;-77
2022/12/20 12:12:53;;;;;;;0.90;0.90;;;;;;;;;;5032164;28;20210;-77
2022/12/20 12:15:30;;;;;;;0.90;0.90;;;;;;;;;;5032688;28;20187;-76
2022/12/20 12:17:59;;;;;;;0.70;0.70;;;;;;;;;;5032561;28;20225;-78
2022/12/20 12:20:48;;;;;;;0.90;0.90;;;;;;;;;;5032505;28;20192;-77
2022/12/20 12:23:23;;;;;;;0.63;0.63;;;;;;;;;;5032163;28;20196;-77
2022/12/20 12:25:49;;;;;;;0.70;0.70;;;;;;;;;;5032392;28;20175;-77
2022/12/20 12:28:17;;;;;;;0.80;0.80;;;;;;;;;;5032425;28;20186;-78
2022/12/20 12:30:48;;;;;;;0.70;0.70;;;;;;;;;;5032265;28;20254;-77
2022/12/20 12:33:17;;;;;;;0.80;0.80;;;;;;;;;;5032416;28;20196;-77
2022/12/20 12:35:57;;;;;;;0.77;0.77;;;;;;;;;;5032694;28;20604;-78
2022/12/20 12:38:36;;;;;;;0.80;0.80;;;;;;;;;;5032644;28;20271;-79
2022/12/20 12:41:12;;;;;;;0.70;0.70;;;;;;;;;;5032134;28;20183;-78
2022/12/20 12:43:41;;;;;;;0.70;0.70;;;;;;;;;;5031752;28;20241;-78
2022/12/20 12:46:33;;;;;;;0.80;0.80;;;;;;;;;;5014716;28;20176;-76
2022/12/20 12:49:17;;;;;;;0.80;0.80;;;;;;;;;;5028026;28;20356;-77
2022/12/20 12:51:49;;;;;;;0.80;0.80;;;;;;;;;;5031602;28;20645;-80
2022/12/20 12:54:15;;;;;;;0.70;0.70;;;;;;;;;;5032276;28;20188;-80
2022/12/20 12:56:44;;;;;;;0.77;0.77;;;;;;;;;;5032782;28;20180;-78
2022/12/20 12:59:19;;;;;;;0.80;0.80;;;;;;;;;;5033297;28;20180;-80
2022/12/20 13:01:52;;;;;;;0.80;0.80;;;;;;;;;;5049060;28;20174;-77
2022/12/20 13:04:18;;;;;;;0.73;0.73;;;;;;;;;;5051241;28;20199;-77
2022/12/20 13:06:47;;;;;;;0.60;0.60;;;;;;;;;;5051636;28;20636;-78
2022/12/20 13:09:25;;;;;;;0.80;0.80;;;;;;;;;;5060909;28;20211;-78
2022/12/20 13:11:52;;;;;;;0.80;0.80;;;;;;;;;;5045873;28;20195;-77
2022/12/20 13:14:24;;;;;;;0.60;0.60;;;;;;;;;;5042106;28;20416;-75
2022/12/20 13:16:50;;;;;;;0.80;0.80;;;;;;;;;;5033629;28;20187;-76
2022/12/20 13:19:17;;;;;;;0.70;0.70;;;;;;;;;;5031542;28;20171;-76
2022/12/20 13:21:45;;;;;;;0.73;0.73;;;;;;;;;;5031973;28;20183;-79
2022/12/20 13:24:49;;;;;;;0.80;0.80;;;;;;;;;;5030772;28;20210;-78
2022/12/20 13:27:24;;;;;;;0.87;0.87;;;;;;;;;;4950739;28;20200;-76
2022/12/20 13:30:17;;;;;;;0.73;0.73;;;;;;;;;;5021554;28;20337;-77
2022/12/20 13:32:46;;;;;;;0.77;0.77;;;;;;;;;;5027537;28;20833;-76
2022/12/20 13:35:41;;;;;;;0.80;0.80;;;;;;;;;;5031080;28;20259;-79
2022/12/20 13:38:10;;;;;;;0.80;0.80;;;;;;;;;;5013887;28;20696;-76
2022/12/20 13:40:42;;;;;;;0.80;0.80;;;;;;;;;;5031214;28;20180;-77
2022/12/20 13:43:24;;;;;;;0.80;0.80;;;;;;;;;;5030705;28;20215;-76
2022/12/20 13:45:52;;;;;;;0.80;0.80;;;;;;;;;;5031115;28;20176;-75
2022/12/20 13:48:21;;;;;;;0.80;0.80;;;;;;;;;;5030978;28;20184;-76
2022/12/20 13:50:51;;;;;;;0.87;0.87;;;;;;;;;;5030985;28;20860;-76
2022/12/20 13:53:19;;;;;;;0.70;0.70;;;;;;;;;;5031006;28;20200;-79
2022/12/20 13:55:45;;;;;;;0.70;0.70;;;;;;;;;;5030991;28;20298;-76
2022/12/20 13:58:13;;;;;;;0.70;0.70;;;;;;;;;;5031148;28;20183;-76
2022/12/20 14:00:39;;;;;;;0.80;0.80;;;;;;;;;;5030864;28;20172;-78
2022/12/20 14:03:13;;;;;;;0.73;0.73;;;;;;;;;;5030361;28;20282;-77
2022/12/20 14:05:39;;;;;;;0.70;0.70;;;;;;;;;;5030709;28;20180;-77
2022/12/20 14:08:07;;;;;;;0.70;0.70;;;;;;;;;;5031288;28;20632;-77
2022/12/20 14:10:34;;;;;;;0.70;0.70;;;;;;;;;;5031008;28;20215;-80
2022/12/20 14:13:00;;;;;;;0.80;0.80;;;;;;;;;;5030526;28;20214;-77
2022/12/20 14:15:34;;;;;;;0.90;0.90;;;;;;;;;;5049225;23;20179;-78
2022/12/20 14:18:06;;;;;;;0.80;0.80;;;;;;;;;;5075614;28;20187;-79
2022/12/20 14:20:35;;;;;;;0.70;0.70;;;;;;;;;;5076531;28;20171;-78
2022/12/20 14:23:03;;;;;;;0.70;0.70;;;;;;;;;;5076764;28;20193;-77
2022/12/20 14:25:50;;;;;;;0.80;0.80;;;;;;;;;;5077059;28;20231;-76
2022/12/20 14:28:16;;;;;;;0.77;0.77;;;;;;;;;;5071233;28;20189;-75
2022/12/20 14:30:43;;;;;;;0.70;0.70;;;;;;;;;;5077610;28;20164;-75
2022/12/20 14:33:20;;;;;;;0.70;0.70;;;;;;;;;;5076649;28;20187;-75
2022/12/20 14:35:50;;;;;;;0.80;0.80;;;;;;;;;;5077232;28;20187;-76
2022/12/20 14:38:21;;;;;;;0.83;0.83;;;;;;;;;;5077083;28;20183;-75
2022/12/20 14:40:47;;;;;;;0.90;0.90;;;;;;;;;;5075710;28;20210;-75
2022/12/20 14:43:23;;;;;;;0.70;0.70;;;;;;;;;;5073971;28;20199;-75
2022/12/20 14:45:49;;;;;;;0.77;0.77;;;;;;;;;;5069820;28;20234;-75
2022/12/20 14:48:16;;;;;;;0.70;0.70;;;;;;;;;;5070680;28;20194;-74
2022/12/20 14:50:50;;;;;;;0.70;0.70;;;;;;;;;;5071760;28;20191;-75
2022/12/20 14:53:23;;;;;;;0.80;0.80;;;;;;;;;;5066812;28;20231;-75
2022/12/20 14:55:49;;;;;;;0.60;0.60;;;;;;;;;;5058788;28;20194;-75
2022/12/20 14:58:23;;;;;;;0.80;0.80;;;;;;;;;;5051334;28;20175;-76
2022/12/20 15:01:00;;;;;;;0.70;0.70;;;;;;;;;;5051020;28;20187;-75